Terminal Aerodrome Forecast
Issued by NWS Pocatello, ID

Home | Current Version | Previous Version | Text Only | Print | Product List | Glossary On
Versions: 1 2 3 4 5 6 7 8 9 10 11 12 13 14 15 16 17 18 19
506
FTUS45 KPIH 160520
TAFBYI
TAF
KBYI 160520Z 1606/1706 27010KT 6SM BR VCSH FEW015 BKN100 BKN140
     FM160900 27010KT 6SM BR VCSH SCT015 BKN025 OVC080
     FM161300 27010KT 4SM -SN BR BKN015 OVC070
     FM161800 28010KT P6SM VCSH SCT008 BKN025 OVC070
     FM162100 27015KT P6SM BKN025 OVC070=

USA.gov is the U.S. government's official web portal to all federal, state and local government web resources and services.